Sergeant Bluff, IA

2:40 AM CDT on June 26, 2017 (GMT -0500)
Sioux Gateway | | Change Station

Elev 1096 ft 42.40 °N, 96.38 °W | Updated 3 minutes ago

Light Thunderstorms and Rain
Light Thunderstorm Rain
57 °F
Feels Like 57 °F
N
13
Wind Variable Wind from NNE
Gusts 24 mph

Today
High -- | Low -- °F
--% Chance of Precip.
Yesterday
High -- | Low -- °F
Precip. -- in
Pressure 30.24 in
Visibility 10.0 miles
Clouds Mostly Cloudy 7500 ft
Mostly Cloudy 9000 ft
Dew Point 51 °F
Humidity 81%
Rainfall 0.02 in
Snow Depth Not available.
5:50 AM 9:06 PM
Waxing Crescent, 7% visible
SPECI KSUX 260737Z 03011G21KT 10SM -TSRA BKN075 BKN090 14/11 A3024 RMK AO2 LTG DSNT W RAE06B33 TSB31 P0000 T01390106
Pressure 30.24 in
Visibility 10.0 miles
Clouds Mostly Cloudy 7500 ft
Mostly Cloudy 9000 ft
Dew Point 51 °F
Humidity 81%
Rainfall 0.02 in
Snow Depth Not available.
5:50 AM 9:06 PM
Waxing Crescent, 7% visible
SPECI KSUX 260737Z 03011G21KT 10SM -TSRA BKN075 BKN090 14/11 A3024 RMK AO2 LTG DSNT W RAE06B33 TSB31 P0000 T01390106

Get Severe Weather Alerts

Thanks for signing up!

Be on the lookout for a verification email in your inbox.

You'll start receiving the daily forecast at 6 AM.

×

10-Day Weather Forecast

Almanac

Astronomy

Jun. 26, 2017 Rise Set
Actual Time
Civil Twilight
Nautical Twilight
Astronomical Twilight
Moon
Length of Visible Light
Length of Day
Tomorrow will be .
, % of the Moon is Illuminated

Today's Extremes

State Highs State Lows

Community

WunderPhotos

Category 6

Welcome to Category 6. This is the collective home for Weather Underground's featured writeups by Dr. Jeff Masters (right), Bob Henson (left), Chris Burt, and other regular contributors.

Nearby

Air Quality

  Air Quality AQ Index Pollutant
Not available.

Snow Depth

Station Depth Elevation

Earthquake Activity

City Distance Mag. Time & Date
Minimum magnitude displayed is 2.5.

Coastal Water Temperatures

Place Temperature

Stations

Nearby Weather Stations

Station Location Temp. Windchill Dew Point Humidity Wind Precip. Elev Updated Type
                   

Watches & Warnings

There are currently no watches in effect.